createdAt,value
2018-07-06T00:01:59.635Z,76.20
2018-07-06T00:04:41.590Z,76.70
2018-07-06T00:07:23.607Z,76.20
2018-07-06T00:10:05.882Z,76.50
2018-07-06T00:12:47.898Z,76.90
2018-07-06T00:15:30.005Z,76.80
2018-07-06T00:18:12.083Z,76.90
2018-07-06T00:20:54.034Z,76.60
2018-07-06T00:23:35.963Z,76.60
2018-07-06T00:26:17.718Z,76.70
2018-07-06T00:28:59.794Z,77.70
2018-07-06T00:31:41.865Z,77.10
2018-07-06T00:34:24.039Z,77.10
2018-07-06T00:37:05.834Z,77.90
2018-07-06T00:39:47.955Z,77.80
2018-07-06T00:42:29.786Z,78.30
2018-07-06T00:45:11.730Z,78.00
2018-07-06T00:47:53.698Z,78.50
2018-07-06T00:50:35.690Z,78.60
2018-07-06T00:53:17.663Z,79.50
2018-07-06T00:55:59.690Z,78.80
2018-07-06T00:58:41.711Z,79.10
2018-07-06T01:01:23.585Z,79.50
2018-07-06T01:04:05.811Z,79.50
2018-07-06T01:06:47.626Z,79.40
2018-07-06T01:09:29.750Z,79.80
2018-07-06T01:12:17.230Z,79.40
2018-07-06T01:15:01.871Z,79.80
2018-07-06T01:17:43.891Z,79.50
2018-07-06T01:20:25.934Z,80.00
2018-07-06T01:23:07.874Z,80.20
2018-07-06T01:25:49.994Z,80.00
2018-07-06T01:28:32.166Z,80.10
2018-07-06T01:31:14.355Z,80.40
2018-07-06T01:33:56.382Z,81.00
2018-07-06T01:36:38.711Z,80.80
2018-07-06T01:39:20.790Z,81.40
2018-07-06T01:42:02.910Z,81.80
2018-07-06T01:44:44.754Z,81.60
2018-07-06T01:47:27.255Z,82.50
2018-07-06T01:50:09.163Z,82.60
2018-07-06T01:52:51.219Z,82.60
2018-07-06T01:55:33.163Z,83.70
2018-07-06T01:58:15.285Z,83.10
2018-07-06T02:00:57.350Z,82.70
2018-07-06T02:03:39.433Z,83.10
2018-07-06T02:06:21.326Z,83.30
2018-07-06T02:09:03.503Z,82.90
2018-07-06T02:11:45.555Z,83.20
2018-07-06T02:14:27.782Z,83.40
2018-07-06T02:17:09.926Z,83.50
2018-07-06T02:19:52.135Z,83.90
2018-07-06T02:22:34.498Z,84.10
2018-07-06T02:25:16.570Z,83.60
2018-07-06T02:27:58.730Z,85.10
2018-07-06T02:30:40.595Z,84.10
2018-07-06T02:33:22.626Z,84.30
2018-07-06T02:36:04.723Z,84.40
2018-07-06T02:38:46.811Z,84.80
2018-07-06T02:41:28.683Z,84.80
2018-07-06T02:44:10.886Z,85.10
2018-07-06T02:46:52.899Z,85.30
2018-07-06T02:49:35.051Z,85.30
2018-07-06T02:52:17.315Z,85.80
2018-07-06T02:54:59.813Z,86.50
2018-07-06T02:57:42.101Z,85.60
2018-07-06T03:00:24.362Z,85.40
2018-07-06T03:03:06.553Z,85.30
2018-07-06T03:05:48.670Z,85.30
2018-07-06T03:08:30.839Z,85.70
2018-07-06T03:11:12.849Z,85.80
2018-07-06T03:13:55.070Z,85.70
2018-07-06T03:16:37.087Z,86.10
2018-07-06T03:19:19.280Z,86.50
2018-07-06T03:22:01.311Z,86.20
2018-07-06T03:24:43.363Z,86.50
2018-07-06T03:27:25.525Z,86.30
2018-07-06T03:30:07.659Z,86.50
2018-07-06T03:32:49.726Z,86.80
2018-07-06T03:35:31.794Z,86.80
2018-07-06T03:38:14.035Z,86.80
2018-07-06T03:40:55.999Z,87.00
2018-07-06T03:43:38.185Z,87.10
2018-07-06T03:46:20.202Z,87.10
2018-07-06T03:49:02.326Z,87.20
2018-07-06T03:51:44.507Z,87.40
2018-07-06T03:54:26.642Z,86.90
2018-07-06T03:57:08.687Z,86.80
2018-07-06T03:59:50.915Z,86.30
2018-07-06T04:02:32.924Z,86.40
2018-07-06T04:05:15.183Z,86.20
2018-07-06T04:07:57.246Z,86.40
2018-07-06T04:10:39.400Z,86.20
2018-07-06T04:13:21.407Z,86.70
2018-07-06T04:16:03.533Z,86.90
2018-07-06T04:18:45.574Z,86.90
2018-07-06T04:21:27.758Z,86.60
2018-07-06T04:24:09.898Z,86.80
2018-07-06T04:26:52.040Z,86.60
2018-07-06T04:29:34.102Z,86.60
2018-07-06T04:32:16.128Z,86.70
2018-07-06T04:34:58.223Z,86.40
2018-07-06T04:37:40.644Z,86.10
2018-07-06T04:40:22.922Z,85.90
2018-07-06T04:43:05.555Z,86.30
2018-07-06T04:45:48.238Z,85.60
2018-07-06T04:48:30.191Z,85.20
2018-07-06T04:51:12.232Z,85.10
2018-07-06T04:53:54.423Z,85.00
2018-07-06T04:56:36.511Z,84.50
2018-07-06T04:59:18.566Z,84.30
2018-07-06T05:02:00.799Z,83.90
2018-07-06T05:04:43.003Z,83.80
2018-07-06T05:07:24.904Z,83.70
2018-07-06T05:10:07.027Z,83.30
2018-07-06T05:12:49.026Z,83.70
2018-07-06T05:15:31.198Z,83.40
2018-07-06T05:18:13.311Z,83.30
2018-07-06T05:20:55.509Z,83.10
2018-07-06T05:23:37.543Z,82.90
2018-07-06T05:26:19.710Z,82.90
2018-07-06T05:29:01.795Z,82.40
2018-07-06T05:31:43.914Z,82.70
2018-07-06T05:34:25.930Z,81.50
2018-07-06T05:37:08.271Z,81.40
2018-07-06T05:39:50.314Z,81.20
2018-07-06T05:42:32.459Z,80.80
2018-07-06T05:45:14.938Z,80.20
2018-07-06T05:47:57.051Z,81.20
2018-07-06T05:50:39.151Z,79.70
2018-07-06T05:53:21.296Z,79.60
2018-07-06T05:56:03.370Z,80.10
2018-07-06T05:58:45.642Z,80.40
2018-07-06T06:01:28.094Z,80.80
2018-07-06T06:04:10.031Z,80.40
2018-07-06T06:06:52.147Z,81.00
2018-07-06T06:09:22.814Z,79.50
2018-07-06T06:11:53.526Z,78.70
2018-07-06T06:14:24.211Z,79.20
2018-07-06T06:16:54.902Z,79.10
2018-07-06T06:19:25.728Z,79.30
2018-07-06T06:21:56.710Z,78.70
2018-07-06T06:24:27.391Z,79.10
2018-07-06T06:26:58.075Z,78.00
2018-07-06T06:29:28.813Z,78.40
2018-07-06T06:32:00.175Z,78.40
2018-07-06T06:34:30.914Z,78.60
2018-07-06T06:37:02.424Z,78.90
2018-07-06T06:39:33.507Z,78.70
2018-07-06T06:42:04.695Z,78.20
2018-07-06T06:44:35.442Z,78.20
2018-07-06T06:47:06.810Z,79.00
2018-07-06T06:49:37.740Z,78.80
2018-07-06T06:52:08.446Z,78.20
2018-07-06T06:54:39.182Z,78.70
2018-07-06T06:57:09.839Z,78.80
2018-07-06T06:59:40.594Z,79.00
2018-07-06T07:02:11.383Z,79.40
2018-07-06T07:04:42.154Z,78.60
2018-07-06T07:07:13.062Z,78.80
2018-07-06T07:09:43.814Z,79.60
2018-07-06T07:12:14.822Z,80.10
2018-07-06T07:14:45.599Z,79.60
2018-07-06T07:17:16.334Z,79.00
2018-07-06T07:19:47.026Z,78.70
2018-07-06T07:22:17.734Z,78.80
2018-07-06T07:24:48.487Z,78.00
2018-07-06T07:27:19.507Z,78.30
2018-07-06T07:29:50.382Z,78.30
2018-07-06T07:32:21.062Z,77.80
2018-07-06T07:34:51.804Z,78.40
2018-07-06T07:37:22.499Z,78.00
2018-07-06T07:39:53.539Z,78.00
2018-07-06T07:42:24.574Z,77.50
2018-07-06T07:44:55.315Z,77.60
2018-07-06T07:47:26.078Z,77.90
2018-07-06T07:49:56.759Z,77.60
2018-07-06T07:52:38.844Z,76.90
2018-07-06T07:55:09.624Z,76.70
2018-07-06T07:57:39.262Z,75.60
2018-07-06T08:00:10.013Z,75.30
2018-07-06T08:02:40.646Z,75.30
2018-07-06T08:05:11.327Z,76.20
2018-07-06T08:07:42.041Z,75.20
2018-07-06T08:10:12.739Z,74.50
2018-07-06T08:12:43.418Z,74.10
2018-07-06T08:15:14.128Z,73.40
2018-07-06T08:17:44.786Z,74.10
2018-07-06T08:20:15.495Z,75.70
2018-07-06T08:22:46.164Z,73.40
2018-07-06T08:25:16.860Z,73.30
2018-07-06T08:27:47.490Z,72.70
2018-07-06T08:30:18.193Z,73.90
2018-07-06T08:32:49.014Z,73.00
2018-07-06T08:35:31.216Z,73.60
2018-07-06T08:38:05.280Z,72.60
2018-07-06T08:40:36.148Z,71.70
2018-07-06T08:43:07.130Z,71.10
2018-07-06T08:45:37.803Z,71.50
2018-07-06T08:48:08.462Z,70.50
2018-07-06T08:50:39.147Z,70.50
2018-07-06T08:53:09.799Z,69.70
2018-07-06T08:55:40.471Z,69.60
2018-07-06T08:58:11.132Z,70.50
2018-07-06T09:00:42.018Z,71.10
2018-07-06T09:03:12.786Z,68.00
2018-07-06T09:05:43.498Z,69.30
2018-07-06T09:08:14.156Z,67.60
2018-07-06T09:10:44.846Z,67.30
2018-07-06T09:13:15.516Z,66.40
2018-07-06T09:15:46.231Z,65.50
2018-07-06T09:18:16.883Z,67.50
2018-07-06T09:20:47.651Z,67.50
2018-07-06T09:23:18.507Z,65.40
2018-07-06T09:25:49.249Z,66.70
2018-07-06T09:28:20.119Z,64.80
2018-07-06T09:30:50.730Z,66.10
2018-07-06T09:33:21.490Z,63.90
2018-07-06T09:35:52.174Z,64.70
2018-07-06T09:38:23.004Z,64.90
2018-07-06T09:40:53.707Z,64.80
2018-07-06T09:43:24.401Z,66.30
2018-07-06T09:45:55.230Z,66.20
2018-07-06T09:48:25.590Z,65.30
2018-07-06T09:50:56.326Z,65.60
2018-07-06T09:53:27.132Z,64.40
2018-07-06T09:55:57.914Z,66.00
2018-07-06T09:58:28.520Z,64.50
2018-07-06T10:00:59.722Z,64.70
2018-07-06T10:03:30.446Z,63.90
2018-07-06T10:06:01.131Z,64.70
2018-07-06T10:08:31.783Z,64.20
2018-07-06T10:11:02.541Z,63.90
2018-07-06T10:13:40.530Z,63.00
2018-07-06T10:16:11.508Z,61.70
2018-07-06T10:18:42.362Z,62.50
2018-07-06T10:21:13.046Z,62.20
2018-07-06T10:23:43.503Z,61.00
2018-07-06T10:26:14.530Z,64.30
2018-07-06T10:28:52.726Z,62.00
2018-07-06T10:32:31.158Z,60.00
2018-07-06T10:35:01.840Z,60.70
2018-07-06T10:37:32.578Z,60.00
2018-07-06T10:40:03.457Z,59.30
2018-07-06T10:42:34.254Z,59.70
2018-07-06T10:45:05.146Z,59.60
2018-07-06T10:47:35.865Z,58.40
2018-07-06T10:50:06.810Z,59.80
2018-07-06T10:52:37.502Z,59.40
2018-07-06T10:55:08.194Z,58.80
2018-07-06T10:57:39.203Z,58.60
2018-07-06T11:00:10.262Z,58.90
2018-07-06T11:02:41.094Z,57.90
2018-07-06T11:05:11.807Z,58.20
2018-07-06T11:07:42.478Z,58.90
2018-07-06T11:10:13.701Z,57.80
2018-07-06T11:12:44.395Z,59.80
2018-07-06T11:15:15.257Z,58.30
2018-07-06T11:17:45.641Z,57.90
2018-07-06T11:20:16.546Z,57.60
2018-07-06T11:22:46.950Z,56.10
2018-07-06T11:25:17.563Z,55.80
2018-07-06T11:27:48.110Z,56.20
2018-07-06T11:30:18.467Z,56.70
2018-07-06T11:32:48.875Z,57.40
2018-07-06T11:35:19.262Z,57.00
2018-07-06T11:37:50.068Z,55.40
2018-07-06T11:40:20.914Z,55.00
2018-07-06T11:42:51.655Z,54.90
2018-07-06T11:45:22.031Z,55.30
2018-07-06T11:47:52.422Z,55.40
2018-07-06T11:50:22.841Z,53.40
2018-07-06T11:52:53.387Z,52.80
2018-07-06T11:55:23.746Z,53.40
2018-07-06T11:57:54.157Z,52.50
2018-07-06T12:00:24.514Z,51.20
2018-07-06T12:02:54.922Z,51.70
2018-07-06T12:05:25.296Z,51.60
2018-07-06T12:07:55.673Z,52.50
2018-07-06T12:10:26.126Z,51.60
2018-07-06T12:12:56.866Z,50.70
2018-07-06T12:15:27.306Z,51.50
2018-07-06T12:17:57.856Z,50.90
2018-07-06T12:20:28.193Z,51.30
2018-07-06T12:22:58.766Z,51.60
2018-07-06T12:25:29.147Z,51.10
2018-07-06T12:27:59.568Z,51.00
2018-07-06T12:30:29.966Z,50.20
2018-07-06T12:33:00.342Z,50.20
2018-07-06T12:35:30.790Z,52.30
2018-07-06T12:38:01.154Z,51.10
2018-07-06T12:40:31.555Z,50.70
2018-07-06T12:43:01.988Z,51.20
2018-07-06T12:45:33.724Z,50.50
2018-07-06T12:48:04.949Z,50.50
2018-07-06T12:50:35.334Z,50.40
2018-07-06T12:53:05.735Z,50.80
2018-07-06T12:55:36.138Z,48.80
2018-07-06T12:58:06.559Z,50.20
2018-07-06T13:00:37.115Z,50.00
2018-07-06T13:03:07.529Z,49.60
2018-07-06T13:08:08.412Z,49.10
2018-07-06T13:10:38.813Z,49.50
2018-07-06T13:13:09.476Z,48.20
2018-07-06T13:15:39.862Z,49.50
2018-07-06T13:18:10.274Z,49.90
2018-07-06T13:20:40.632Z,49.70
2018-07-06T13:23:11.378Z,48.60
2018-07-06T13:25:41.751Z,48.40
2018-07-06T13:28:12.158Z,48.50
2018-07-06T13:30:42.882Z,48.70
2018-07-06T13:33:13.297Z,48.40
2018-07-06T13:35:43.650Z,49.10
2018-07-06T13:38:14.042Z,47.40
2018-07-06T13:40:44.755Z,48.20
2018-07-06T13:43:15.442Z,47.90
2018-07-06T13:45:45.825Z,48.00
2018-07-06T13:48:16.394Z,47.70
2018-07-06T13:50:47.158Z,46.60
2018-07-06T13:53:17.531Z,47.70
2018-07-06T13:55:47.883Z,46.60
2018-07-06T13:58:18.335Z,48.20
2018-07-06T14:00:48.695Z,47.80
2018-07-06T14:03:19.071Z,47.80
2018-07-06T14:05:49.469Z,48.50
2018-07-06T14:08:20.018Z,48.90
2018-07-06T14:10:50.455Z,47.30
2018-07-06T14:13:20.885Z,47.70
2018-07-06T14:15:51.313Z,47.80
2018-07-06T14:18:21.671Z,47.30
2018-07-06T14:20:52.030Z,46.90
2018-07-06T14:23:22.402Z,46.10
2018-07-06T14:25:52.791Z,47.10
2018-07-06T14:28:23.166Z,47.70
2018-07-06T14:30:53.750Z,47.60
2018-07-06T14:33:24.103Z,48.10
2018-07-06T14:35:54.854Z,46.60
2018-07-06T14:38:25.522Z,47.60
2018-07-06T14:40:55.947Z,48.40
2018-07-06T14:43:26.503Z,48.80
2018-07-06T14:45:56.878Z,47.90
2018-07-06T14:48:27.259Z,48.40
2018-07-06T14:50:57.646Z,47.70
2018-07-06T14:53:27.998Z,48.40
2018-07-06T14:55:58.798Z,48.20
2018-07-06T14:58:29.138Z,47.10
2018-07-06T15:00:59.518Z,47.00
2018-07-06T15:03:29.875Z,46.90
2018-07-06T15:06:00.607Z,45.00
2018-07-06T15:08:30.998Z,46.20
2018-07-06T15:11:01.435Z,46.20
2018-07-06T15:13:31.814Z,46.10
2018-07-06T15:16:02.291Z,46.00
2018-07-06T15:18:32.815Z,46.60
2018-07-06T15:21:03.234Z,46.50
2018-07-06T15:23:33.635Z,45.00
2018-07-06T15:26:04.014Z,45.80
2018-07-06T15:28:34.738Z,45.20
2018-07-06T15:31:05.100Z,44.90
2018-07-06T15:33:35.483Z,44.60
2018-07-06T15:36:06.180Z,45.20
2018-07-06T15:38:36.563Z,45.20
2018-07-06T15:41:06.951Z,45.20
2018-07-06T15:43:37.679Z,45.60
2018-07-06T15:46:08.038Z,46.00
2018-07-06T15:48:38.557Z,45.60
2018-07-06T15:51:09.141Z,45.60
2018-07-06T15:53:39.523Z,46.40
2018-07-06T15:56:09.890Z,46.50
2018-07-06T15:58:40.262Z,46.80
2018-07-06T16:01:10.965Z,47.30
2018-07-06T16:03:41.415Z,46.60
2018-07-06T16:06:11.731Z,47.20
2018-07-06T16:08:42.117Z,47.50
2018-07-06T16:11:12.690Z,47.60
2018-07-06T16:13:43.043Z,47.70
2018-07-06T16:16:13.818Z,47.70
2018-07-06T16:18:44.182Z,48.20
2018-07-06T16:21:14.563Z,46.90
2018-07-06T16:23:44.950Z,47.20
2018-07-06T16:26:15.306Z,47.70
2018-07-06T16:28:46.038Z,47.70
2018-07-06T16:31:16.399Z,48.50
2018-07-06T16:33:46.780Z,48.80
2018-07-06T16:36:17.219Z,48.50
2018-07-06T16:38:47.738Z,49.00
2018-07-06T16:41:18.122Z,47.90
2018-07-06T16:43:48.706Z,48.50
2018-07-06T16:46:19.058Z,47.80
2018-07-06T16:48:49.785Z,48.20
2018-07-06T16:51:20.184Z,48.40
2018-07-06T16:53:50.538Z,48.30
2018-07-06T16:56:20.940Z,48.20
2018-07-06T16:58:51.391Z,48.60
2018-07-06T17:01:21.747Z,47.20
2018-07-06T17:03:52.186Z,47.70
2018-07-06T17:06:22.594Z,47.30
2018-07-06T17:08:52.974Z,47.60
2018-07-06T17:11:23.415Z,47.50
2018-07-06T17:13:54.072Z,47.90
2018-07-06T17:16:24.583Z,48.20
2018-07-06T17:18:54.971Z,48.00
2018-07-06T17:21:25.533Z,48.10
2018-07-06T17:23:55.926Z,48.80
2018-07-06T17:26:26.323Z,48.80
2018-07-06T17:28:56.715Z,48.10
2018-07-06T17:31:27.223Z,49.30
2018-07-06T17:33:57.784Z,48.80
2018-07-06T17:36:28.218Z,49.20
2018-07-06T17:38:58.602Z,49.80
2018-07-06T17:41:28.983Z,49.30
2018-07-06T17:43:59.342Z,49.10
2018-07-06T17:46:29.722Z,49.50
2018-07-06T17:49:00.087Z,49.40
2018-07-06T17:51:30.491Z,49.70
2018-07-06T17:54:00.870Z,49.70
2018-07-06T17:56:31.270Z,49.10
2018-07-06T17:59:01.650Z,49.60
2018-07-06T18:01:32.308Z,49.10
2018-07-06T18:04:02.635Z,48.60
2018-07-06T18:06:33.474Z,48.80
2018-07-06T18:09:04.018Z,48.60
2018-07-06T18:11:34.412Z,48.80
2018-07-06T18:14:05.122Z,48.20
2018-07-06T18:16:35.607Z,48.30
2018-07-06T18:19:06.302Z,48.00
2018-07-06T18:21:36.743Z,49.00
2018-07-06T18:24:07.454Z,48.90
2018-07-06T18:26:37.848Z,49.40
2018-07-06T18:29:08.194Z,49.40
2018-07-06T18:31:38.613Z,49.50
2018-07-06T18:34:09.002Z,48.10
2018-07-06T18:36:39.350Z,48.90
2018-07-06T18:39:09.770Z,49.10
2018-07-06T18:41:40.136Z,48.80
2018-07-06T18:44:10.531Z,48.20
2018-07-06T18:46:40.911Z,48.70
2018-07-06T18:49:11.311Z,48.80
2018-07-06T18:51:42.019Z,47.90
2018-07-06T18:54:12.402Z,48.90
2018-07-06T18:56:42.762Z,48.70
2018-07-06T18:59:13.144Z,49.00
2018-07-06T19:01:43.494Z,49.00
2018-07-06T19:04:13.871Z,48.80
2018-07-06T19:06:44.595Z,49.10
2018-07-06T19:09:14.942Z,49.30
2018-07-06T19:11:45.315Z,49.20
2018-07-06T19:14:15.690Z,49.30
2018-07-06T19:16:47.350Z,49.70
2018-07-06T19:19:19.146Z,49.90
2018-07-06T19:21:49.967Z,50.20
2018-07-06T19:24:20.788Z,50.90
2018-07-06T19:26:51.870Z,50.80
2018-07-06T19:29:23.735Z,50.60
2018-07-06T19:31:55.103Z,50.40
2018-07-06T19:34:25.447Z,50.50
2018-07-06T19:36:55.845Z,51.30
2018-07-06T19:39:26.214Z,51.30
2018-07-06T19:41:56.572Z,51.60
2018-07-06T19:44:26.930Z,51.90
2018-07-06T19:46:57.400Z,52.70
2018-07-06T19:49:27.812Z,55.00
2018-07-06T19:51:58.194Z,55.00
2018-07-06T19:54:28.882Z,56.00
2018-07-06T19:56:59.608Z,56.80
2018-07-06T19:59:29.958Z,56.60
2018-07-06T20:02:00.359Z,55.80
2018-07-06T20:04:30.754Z,55.80
2018-07-06T20:07:01.179Z,56.90
2018-07-06T20:09:31.881Z,57.70
2018-07-06T20:12:02.195Z,57.30
2018-07-06T20:14:32.574Z,57.60
2018-07-06T20:17:03.065Z,58.30
2018-07-06T20:19:33.754Z,58.20
2018-07-06T20:22:04.486Z,57.60
2018-07-06T20:24:36.775Z,58.20
2018-07-06T20:27:07.238Z,57.80
2018-07-06T20:29:37.655Z,58.30
2018-07-06T20:32:08.449Z,58.80
2018-07-06T20:34:38.936Z,59.20
2018-07-06T20:37:09.392Z,58.80
2018-07-06T20:39:39.841Z,59.60
2018-07-06T20:42:10.251Z,59.10
2018-07-06T20:44:40.648Z,59.70
2018-07-06T20:47:11.082Z,59.80
2018-07-06T20:49:41.480Z,60.50
2018-07-06T20:52:11.885Z,59.90
2018-07-06T20:54:42.300Z,60.40
2018-07-06T20:57:12.722Z,59.90
2018-07-06T20:59:43.359Z,60.20
2018-07-06T21:02:13.772Z,60.50
2018-07-06T21:04:44.289Z,60.50
2018-07-06T21:07:14.852Z,61.10
2018-07-06T21:09:45.357Z,60.40
2018-07-06T21:12:16.172Z,61.10
2018-07-06T21:14:46.599Z,61.30
2018-07-06T21:17:17.043Z,61.50
2018-07-06T21:19:47.451Z,62.20
2018-07-06T21:22:17.865Z,62.60
2018-07-06T21:24:48.471Z,63.20
2018-07-06T21:27:18.875Z,62.90
2018-07-06T21:29:49.908Z,63.40
2018-07-06T21:32:20.552Z,63.60
2018-07-06T21:34:50.953Z,63.80
2018-07-06T21:37:21.340Z,64.30
2018-07-06T21:39:51.799Z,65.50
2018-07-06T21:42:22.172Z,64.80
2018-07-06T21:44:52.727Z,64.70
2018-07-06T21:47:23.127Z,65.00
2018-07-06T21:49:53.539Z,64.70
2018-07-06T21:52:24.114Z,65.20
2018-07-06T21:54:54.879Z,65.90
2018-07-06T21:57:25.359Z,66.30
2018-07-06T21:59:55.753Z,66.90
2018-07-06T22:02:26.451Z,67.30
2018-07-06T22:04:57.169Z,67.20
2018-07-06T22:07:27.947Z,68.10
2018-07-06T22:09:58.348Z,68.00
2018-07-06T22:12:28.855Z,68.80
2018-07-06T22:15:00.514Z,69.10
2018-07-06T22:17:32.557Z,69.60
2018-07-06T22:20:02.997Z,69.90
2018-07-06T22:22:33.693Z,69.20
2018-07-06T22:25:04.605Z,70.00
2018-07-06T22:27:35.308Z,70.40
2018-07-06T22:30:06.064Z,69.80
2018-07-06T22:32:37.075Z,70.30
2018-07-06T22:35:07.944Z,70.40
2018-07-06T22:37:38.639Z,70.50
2018-07-06T22:40:09.405Z,71.10
2018-07-06T22:42:40.147Z,71.20
2018-07-06T22:45:11.629Z,71.90
2018-07-06T22:47:42.697Z,72.20
2018-07-06T22:50:13.747Z,71.80
2018-07-06T22:52:44.415Z,72.10
2018-07-06T22:55:15.475Z,72.00
2018-07-06T22:57:46.147Z,72.50
2018-07-06T23:00:16.883Z,72.40
2018-07-06T23:05:18.838Z,73.30
2018-07-06T23:07:49.687Z,72.70
2018-07-06T23:10:20.807Z,73.00
2018-07-06T23:12:51.825Z,72.90
2018-07-06T23:15:22.564Z,73.10
2018-07-06T23:17:53.236Z,72.90
2018-07-06T23:20:23.954Z,72.90
2018-07-06T23:23:01.346Z,73.00
2018-07-06T23:25:33.952Z,73.70
2018-07-06T23:28:04.996Z,72.90
2018-07-06T23:30:35.776Z,72.70
2018-07-06T23:33:07.263Z,73.00
2018-07-06T23:35:38.361Z,72.70
2018-07-06T23:38:09.934Z,73.10
2018-07-06T23:40:41.083Z,73.00
2018-07-06T23:43:12.096Z,73.20
2018-07-06T23:45:43.110Z,73.20
2018-07-06T23:48:14.134Z,73.30
2018-07-06T23:50:44.818Z,73.40
2018-07-06T23:53:15.799Z,73.30
2018-07-06T23:55:46.815Z,73.40
2018-07-06T23:58:17.475Z,73.60
